createdAt,value
2023-04-20T00:04:05.485Z,5.20
2023-04-20T00:10:47.798Z,5.18
2023-04-20T00:17:30.102Z,4.88
2023-04-20T00:24:12.399Z,5.40
2023-04-20T00:30:54.656Z,5.63
2023-04-20T00:37:37.015Z,5.50
2023-04-20T00:44:19.349Z,5.80
2023-04-20T00:51:02.252Z,5.13
2023-04-20T00:57:44.796Z,5.07
2023-04-20T01:04:27.476Z,5.55
2023-04-20T01:11:09.842Z,5.55
2023-04-20T01:17:52.408Z,5.75
2023-04-20T01:24:34.876Z,4.82
2023-04-20T01:31:17.455Z,5.90
2023-04-20T01:37:59.746Z,6.25
2023-04-20T01:44:42.185Z,5.95
2023-04-20T01:51:24.480Z,6.53
2023-04-20T01:58:07.307Z,5.70
2023-04-20T02:04:49.825Z,5.88
2023-04-20T02:11:32.227Z,6.05
2023-04-20T02:18:16.042Z,6.00
2023-04-20T02:24:58.440Z,6.38
2023-04-20T02:31:40.761Z,5.93
2023-04-20T02:38:23.113Z,7.13
2023-04-20T02:45:06.067Z,6.97
2023-04-20T02:51:48.436Z,6.70
2023-04-20T02:58:31.132Z,6.97
2023-04-20T03:05:36.381Z,7.10
2023-04-20T03:12:19.031Z,6.70
2023-04-20T03:19:04.643Z,6.63
2023-04-20T03:25:47.817Z,7.70
2023-04-20T03:32:38.744Z,7.25
2023-04-20T03:39:21.679Z,8.15
2023-04-20T03:46:04.248Z,7.82
2023-04-20T03:52:46.727Z,7.40
2023-04-20T03:59:29.220Z,8.02
2023-04-20T04:06:11.809Z,7.70
2023-04-20T04:12:54.156Z,7.22
2023-04-20T04:19:37.264Z,7.80
2023-04-20T04:26:24.500Z,7.10
2023-04-20T04:33:10.103Z,7.90
2023-04-20T04:39:54.599Z,8.10
2023-04-20T04:46:47.334Z,8.02
2023-04-20T04:53:30.134Z,8.23
2023-04-20T05:00:13.211Z,7.60
2023-04-20T05:06:55.542Z,7.78
2023-04-20T05:13:37.873Z,7.80
2023-04-20T05:20:21.459Z,7.95
2023-04-20T05:27:04.288Z,7.85
2023-04-20T05:33:46.704Z,7.30
2023-04-20T05:40:29.061Z,6.63
2023-04-20T05:47:11.510Z,7.10
2023-04-20T05:53:53.824Z,6.80
2023-04-20T06:00:36.189Z,6.00
2023-04-20T06:07:18.457Z,5.78
2023-04-20T06:14:00.771Z,5.32
2023-04-20T06:20:46.853Z,5.20
2023-04-20T06:27:29.152Z,4.88
2023-04-20T06:34:12.338Z,4.97
2023-04-20T06:40:54.868Z,5.47
2023-04-20T06:47:37.408Z,5.85
2023-04-20T06:54:19.716Z,5.28
2023-04-20T07:01:02.642Z,5.50
2023-04-20T07:07:45.240Z,5.35
2023-04-20T07:14:27.564Z,4.90
2023-04-20T07:21:09.888Z,5.35
2023-04-20T07:27:52.216Z,5.63
2023-04-20T07:34:34.808Z,5.38
2023-04-20T07:41:17.206Z,6.65
2023-04-20T07:48:01.521Z,5.93
2023-04-20T07:54:47.391Z,6.50
2023-04-20T08:01:46.764Z,6.35
2023-04-20T08:08:29.704Z,6.03
2023-04-20T08:15:12.122Z,5.95
2023-04-20T08:21:54.495Z,6.65
2023-04-20T08:28:36.932Z,7.25
2023-04-20T08:35:19.364Z,6.68
2023-04-20T08:42:02.139Z,7.53
2023-04-20T08:48:46.884Z,7.20
2023-04-20T08:55:29.256Z,7.47
2023-04-20T09:02:13.407Z,6.28
2023-04-20T09:08:56.504Z,6.40
2023-04-20T09:15:38.772Z,6.45
2023-04-20T09:22:36.219Z,6.47
2023-04-20T09:29:21.739Z,6.60
2023-04-20T09:36:05.696Z,5.82
2023-04-20T09:42:49.708Z,6.95
2023-04-20T09:49:32.503Z,6.68
2023-04-20T09:56:16.982Z,6.82
2023-04-20T10:02:59.562Z,6.82
2023-04-20T10:09:41.989Z,7.28
2023-04-20T10:16:24.782Z,6.20
2023-04-20T10:23:10.412Z,6.65
2023-04-20T10:29:53.048Z,6.55
2023-04-20T10:36:37.666Z,7.43
2023-04-20T10:43:21.490Z,6.80
2023-04-20T10:50:10.519Z,7.13
2023-04-20T10:56:53.392Z,7.35
2023-04-20T11:03:35.913Z,6.60
2023-04-20T11:10:18.749Z,6.53
2023-04-20T11:17:01.777Z,6.53
2023-04-20T11:23:44.775Z,6.95
2023-04-20T11:30:38.696Z,6.68
2023-04-20T11:37:21.280Z,6.82
2023-04-20T11:44:06.156Z,7.95
2023-04-20T11:50:48.531Z,8.07
2023-04-20T11:57:30.829Z,7.15
2023-04-20T12:04:13.479Z,7.60
2023-04-20T12:10:58.077Z,6.93
2023-04-20T12:17:41.143Z,6.15
2023-04-20T12:24:23.683Z,7.45
2023-04-20T12:31:06.253Z,6.93
2023-04-20T12:37:48.676Z,6.40
2023-04-20T12:44:31.042Z,7.47
2023-04-20T12:51:15.192Z,6.70
2023-04-20T12:57:57.521Z,6.28
2023-04-20T13:04:39.966Z,6.38
2023-04-20T13:11:22.301Z,6.10
2023-04-20T13:18:05.484Z,5.72
2023-04-20T13:24:47.873Z,5.95
2023-04-20T13:31:31.153Z,6.05
2023-04-20T13:38:13.576Z,6.05
2023-04-20T13:44:56.067Z,5.50
2023-04-20T13:51:41.552Z,6.13
2023-04-20T13:58:23.908Z,6.10
2023-04-20T14:05:06.975Z,6.38
2023-04-20T14:11:53.393Z,5.82
2023-04-20T14:18:37.444Z,6.30
2023-04-20T14:25:19.861Z,6.05
2023-04-20T14:32:02.218Z,6.10
2023-04-20T14:38:44.730Z,6.05
2023-04-20T14:45:27.133Z,5.60
2023-04-20T14:52:09.415Z,5.47
2023-04-20T14:58:52.310Z,5.78
2023-04-20T15:05:35.192Z,5.28
2023-04-20T15:12:17.579Z,5.53
2023-04-20T15:18:59.952Z,6.07
2023-04-20T15:25:42.348Z,6.03
2023-04-20T15:32:25.670Z,6.50
2023-04-20T15:39:08.070Z,6.40
2023-04-20T15:45:50.589Z,6.70
2023-04-20T15:52:32.941Z,7.32
2023-04-20T15:59:15.222Z,7.50
2023-04-20T16:05:57.490Z,8.23
2023-04-20T16:12:39.778Z,7.30
2023-04-20T16:19:22.218Z,8.60
2023-04-20T16:26:04.565Z,8.65
2023-04-20T16:32:47.013Z,7.80
2023-04-20T16:39:29.426Z,8.27
2023-04-20T16:46:13.193Z,8.23
2023-04-20T16:52:55.492Z,8.65
2023-04-20T16:59:37.786Z,8.60
2023-04-20T17:06:20.106Z,8.77
2023-04-20T17:13:02.464Z,8.77
2023-04-20T17:19:45.086Z,10.07
2023-04-20T17:26:27.454Z,9.25
2023-04-20T17:33:12.165Z,9.13
2023-04-20T17:39:54.481Z,8.15
2023-04-20T17:46:36.873Z,10.35
2023-04-20T17:53:19.208Z,9.23
2023-04-20T18:00:01.567Z,9.70
2023-04-20T18:06:43.900Z,10.23
2023-04-20T18:13:26.178Z,10.95
2023-04-20T18:20:08.999Z,10.52
2023-04-20T18:26:51.340Z,10.23
2023-04-20T18:33:33.629Z,11.82
2023-04-20T18:40:16.513Z,11.63
2023-04-20T18:46:59.038Z,10.80
2023-04-20T18:53:41.366Z,11.35
2023-04-20T19:00:23.731Z,11.27
2023-04-20T19:07:06.018Z,12.18
2023-04-20T19:13:48.310Z,11.95
2023-04-20T19:20:30.637Z,14.57
2023-04-20T19:27:12.947Z,12.30
2023-04-20T19:33:57.113Z,13.13
2023-04-20T19:40:39.643Z,14.30
2023-04-20T19:47:21.999Z,13.52
2023-04-20T19:54:04.714Z,14.38
2023-04-20T20:00:47.084Z,13.27
2023-04-20T20:07:29.427Z,13.63
2023-04-20T20:14:11.708Z,14.45
2023-04-20T20:20:54.045Z,13.82
2023-04-20T20:27:36.552Z,13.45
2023-04-20T20:34:18.857Z,13.50
2023-04-20T20:41:01.729Z,13.45
2023-04-20T20:47:44.993Z,14.15
2023-04-20T20:54:27.339Z,13.85
2023-04-20T21:01:09.712Z,15.02
2023-04-20T21:07:52.000Z,15.93
2023-04-20T21:14:34.406Z,15.18
2023-04-20T21:21:16.840Z,16.08
2023-04-20T21:27:59.141Z,17.02
2023-04-20T21:34:41.460Z,18.15
2023-04-20T21:41:23.740Z,17.73
2023-04-20T21:48:06.248Z,17.63
2023-04-20T21:54:48.598Z,18.55
2023-04-20T22:01:30.983Z,19.08
2023-04-20T22:08:15.104Z,18.40
2023-04-20T22:14:57.415Z,19.10
2023-04-20T22:21:39.705Z,19.33
2023-04-20T22:28:21.997Z,18.95
2023-04-20T22:35:04.591Z,18.73
2023-04-20T22:41:46.862Z,19.15
2023-04-20T22:48:29.405Z,20.58
2023-04-20T22:55:11.925Z,20.33
2023-04-20T23:01:54.340Z,20.73
2023-04-20T23:08:36.752Z,21.38
2023-04-20T23:15:19.097Z,20.45
2023-04-20T23:22:02.650Z,20.63
2023-04-20T23:28:44.930Z,20.73
2023-04-20T23:35:27.278Z,21.13
2023-04-20T23:42:09.636Z,22.85
2023-04-20T23:48:52.102Z,19.02
2023-04-20T23:55:34.415Z,20.35
